Deerfield Twp, New Jersey
Current Conditions -  °F | °C
As of 4:54 AM on Thursday 23 Oct 2014 (Local Time) from KMIV Reporting Station
Overcast Overcast  
Wind Chill: 11°   Ceiling: 2600
Heat Index: 11°   Visibility: 10mi
Dew Point:   Wind: 9mph
Humidity: 80%   Direction: 320°NW
Pressure: 29.73"   Gusts: 25mph
Location:  39.4433°N, 75.2554°W
Report Text: KMIV 230854Z AUTO 32008G22KT 10SM OVC026 11/08 A2973 RMK AO2 RAE0756 SLP067 P0000 60000 T01110078 55002 $
Loading
Personal Weather Stations






























Interactive Weather Map
Tropical Storm Tracking
New forecast layout! Learn more

10-Day Weather Forecast

Advertisements
Track Severe Weather on mobile